Time;durP1;ratioP1;P1;durP2;ratioP2;P2;SDS_P1;SDS_P2;PMS_P1;PMS_P2;Temp;Humidity;BMP_temperature;BMP_pressure;BME280_temperature;BME280_humidity;BME280_pressure;Samples;Min_cycle;Max_cycle;Signal;HPM_P1;HPM_P2
2022/01/10 00:02:11;;;;;;;47.30;31.05;;;;;;;4.26;95.50;99502.59;5015334;28;20052;-73
2022/01/10 00:04:37;;;;;;;46.28;32.42;;;;;;;4.37;95.59;99507.88;5012550;28;20465;-72
2022/01/10 00:07:03;;;;;;;48.80;34.42;;;;;;;4.44;95.70;99502.75;5014921;28;20103;-71
2022/01/10 00:09:29;;;;;;;47.05;31.83;;;;;;;4.56;95.34;99499.41;5011417;28;20041;-76
2022/01/10 00:11:54;;;;;;;51.13;32.08;;;;;;;4.39;95.92;99495.78;5014701;28;20110;-74
2022/01/10 00:14:20;;;;;;;48.45;33.13;;;;;;;4.25;95.97;99506.03;5013385;28;20136;-74
2022/01/10 00:16:45;;;;;;;42.85;31.08;;;;;;;4.42;95.71;99506.19;5012722;28;20038;-73
2022/01/10 00:19:11;;;;;;;47.92;33.28;;;;;;;4.59;95.95;99516.78;5011960;28;20040;-77
2022/01/10 00:21:36;;;;;;;45.33;30.52;;;;;;;4.56;96.01;99506.34;5012531;28;20052;-75
2022/01/10 00:24:02;;;;;;;48.63;31.92;;;;;;;4.48;95.88;99508.00;5014895;28;20133;-74
2022/01/10 00:26:27;;;;;;;42.47;28.38;;;;;;;4.48;96.15;99527.03;5005061;28;20481;-73
2022/01/10 00:28:53;;;;;;;45.47;31.35;;;;;;;4.51;96.32;99508.03;5008739;28;20088;-73
2022/01/10 00:31:18;;;;;;;45.97;29.42;;;;;;;4.52;96.23;99531.41;5007660;28;20778;-73
2022/01/10 00:33:44;;;;;;;49.72;30.90;;;;;;;4.56;96.37;99509.78;5008582;28;20045;-72
2022/01/10 00:36:09;;;;;;;44.65;30.95;;;;;;;4.76;96.18;99532.50;5009517;28;20072;-75
2022/01/10 00:38:35;;;;;;;43.17;30.98;;;;;;;4.99;95.71;99527.53;5010563;28;20453;-73
2022/01/10 00:41:01;;;;;;;44.38;31.15;;;;;;;4.76;95.19;99528.19;5009797;28;20493;-72
2022/01/10 00:43:39;;;;;;;49.03;30.05;;;;;;;4.81;95.41;99520.44;5026971;28;20464;-72
2022/01/10 00:46:04;;;;;;;49.17;32.60;;;;;;;4.78;95.45;99508.28;5036364;28;20442;-74
2022/01/10 00:48:30;;;;;;;45.30;31.92;;;;;;;4.61;95.74;99520.22;5038015;28;20053;-72
2022/01/10 00:50:56;;;;;;;47.30;31.90;;;;;;;4.63;96.03;99519.38;5035716;28;20106;-71
2022/01/10 00:53:22;;;;;;;37.88;26.73;;;;;;;4.62;96.02;99520.25;5037419;28;20072;-71
2022/01/10 00:55:48;;;;;;;42.35;30.85;;;;;;;4.59;96.26;99521.97;5038267;28;20049;-72
2022/01/10 00:58:14;;;;;;;46.28;29.42;;;;;;;4.52;96.61;99504.56;5035989;28;20056;-74
2022/01/10 01:00:39;;;;;;;42.47;28.90;;;;;;;4.66;96.67;99515.97;5037372;28;20491;-78
2022/01/10 01:03:05;;;;;;;39.22;29.10;;;;;;;4.42;97.04;99503.59;5036103;28;20480;-74
2022/01/10 01:05:33;;;;;;;42.83;28.42;;;;;;;4.77;97.03;99514.31;5037029;28;20096;-73
2022/01/10 01:08:02;;;;;;;42.28;28.10;;;;;;;4.77;96.55;99513.44;5036292;28;20055;-73
2022/01/10 01:13:38;;;;;;;38.97;27.92;;;;;;;4.57;97.18;99503.75;5009471;28;20494;-73
2022/01/10 01:24:08;;;;;;;40.70;27.25;;;;;;;4.63;96.69;99527.19;5036245;28;20055;-73
2022/01/10 01:26:44;;;;;;;37.45;27.88;;;;;;;4.74;97.29;99527.28;5032515;28;20175;-73
2022/01/10 01:29:12;;;;;;;44.92;29.75;;;;;;;4.88;97.12;99521.34;5036941;28;20049;-74
2022/01/10 01:31:38;;;;;;;45.95;30.10;;;;;;;4.88;96.68;99518.75;5036946;28;20061;-73
2022/01/10 01:34:05;;;;;;;40.75;27.75;;;;;;;4.74;96.91;99524.69;5035426;28;20107;-78
2022/01/10 01:36:31;;;;;;;46.35;28.80;;;;;;;4.77;96.82;99498.72;5036437;28;20056;-73
2022/01/10 01:38:57;;;;;;;42.47;27.13;;;;;;;4.74;96.68;99503.91;5037189;28;20078;-75
2022/01/10 01:43:51;;;;;;;39.25;27.98;;;;;;;4.69;96.94;99492.59;5035693;28;20069;-75
2022/01/10 01:46:17;;;;;;;33.40;24.88;;;;;;;4.70;97.15;99522.91;5035443;28;20049;-73
2022/01/10 01:48:43;;;;;;;39.47;26.95;;;;;;;4.56;97.54;99508.94;5034294;28;20266;-74
2022/01/10 01:51:09;;;;;;;36.70;24.30;;;;;;;4.76;97.52;99524.72;5037289;28;20139;-74
2022/01/10 01:53:38;;;;;;;38.00;25.17;;;;;;;4.76;97.39;99514.31;5036708;28;20037;-76
2022/01/10 01:56:06;;;;;;;38.40;26.38;;;;;;;4.78;97.51;99515.22;5033360;28;20464;-73
2022/01/10 01:58:33;;;;;;;33.75;24.15;;;;;;;4.93;96.76;99506.66;5036662;28;20048;-73
2022/01/10 02:00:58;;;;;;;39.58;21.95;;;;;;;5.08;96.54;99519.78;5036329;28;20053;-76
2022/01/10 02:03:24;;;;;;;35.80;24.27;;;;;;;4.93;96.67;99519.66;5035700;28;20037;-75
2022/01/10 02:05:49;;;;;;;33.10;23.50;;;;;;;4.79;97.08;99515.19;5036064;28;20082;-74
2022/01/10 02:08:15;;;;;;;33.17;22.98;;;;;;;4.71;97.36;99490.91;5036207;28;20048;-74
2022/01/10 02:10:40;;;;;;;31.25;20.52;;;;;;;4.72;97.42;99504.75;5034913;28;20120;-73
2022/01/10 02:13:05;;;;;;;30.58;21.35;;;;;;;4.71;97.47;99516.88;5036138;28;20044;-73
2022/01/10 02:15:42;;;;;;;27.92;20.23;;;;;;;4.63;97.56;99503.78;5035559;28;20053;-77
2022/01/10 02:18:07;;;;;;;31.15;22.55;;;;;;;4.74;97.68;99501.31;5034069;28;20040;-74
2022/01/10 02:20:34;;;;;;;30.08;21.70;;;;;;;4.73;97.84;99496.09;5035273;28;20029;-74
2022/01/10 02:23:01;;;;;;;29.35;21.15;;;;;;;4.70;97.92;99502.13;5036193;28;20045;-72
2022/01/10 02:25:27;;;;;;;32.83;23.33;;;;;;;4.71;97.82;99508.22;5031234;28;20056;-72
2022/01/10 02:27:54;;;;;;;31.63;21.42;;;;;;;5.10;97.72;99519.78;5033385;28;20115;-72
2022/01/10 02:30:20;;;;;;;33.38;23.80;;;;;;;4.96;97.38;99528.34;5035070;28;20051;-75
2022/01/10 02:32:46;;;;;;;33.60;23.50;;;;;;;5.17;96.89;99527.63;5035263;28;20468;-77
2022/01/10 02:35:20;;;;;;;34.65;23.20;;;;;;;4.83;97.32;99524.78;5033480;28;20053;-77
2022/01/10 02:37:48;;;;;;;33.22;24.60;;;;;;;4.95;97.71;99515.34;5035427;28;20084;-74
2022/01/10 02:40:14;;;;;;;32.92;22.67;;;;;;;5.14;97.49;99509.41;5034774;28;20094;-77
2022/01/10 02:42:40;;;;;;;34.58;24.13;;;;;;;4.99;97.34;99530.97;5031721;28;20052;-74
2022/01/10 02:45:06;;;;;;;28.38;21.63;;;;;;;5.21;97.47;99532.00;5035153;28;20039;-75
2022/01/10 02:47:32;;;;;;;30.90;20.98;;;;;;;5.22;97.18;99530.28;5036682;28;20025;-73
2022/01/10 02:49:58;;;;;;;28.00;19.63;;;;;;;5.30;96.89;99539.00;5033386;28;20091;-74
2022/01/10 02:52:23;;;;;;;25.38;19.25;;;;;;;4.93;97.04;99541.31;5033222;28;20130;-74
2022/01/10 02:54:49;;;;;;;26.88;19.92;;;;;;;5.15;97.68;99544.09;5031250;28;20049;-77
2022/01/10 02:57:14;;;;;;;26.02;19.50;;;;;;;5.10;97.53;99557.06;5000874;28;20177;-73
2022/01/10 02:59:41;;;;;;;25.77;18.38;;;;;;;4.81;97.96;99544.69;5020033;28;20067;-72
2022/01/10 03:02:08;;;;;;;29.25;19.52;;;;;;;4.91;98.60;99550.81;5019220;28;20095;-72
2022/01/10 03:04:33;;;;;;;34.13;18.50;;;;;;;4.79;98.80;99550.72;5016821;28;20045;-73
2022/01/10 03:06:59;;;;;;;23.15;17.88;;;;;;;4.96;98.82;99559.53;4984492;28;20040;-72
2022/01/10 03:09:25;;;;;;;22.48;17.20;;;;;;;4.85;98.48;99558.59;5015960;28;20481;-78
2022/01/10 03:11:50;;;;;;;19.95;15.35;;;;;;;4.91;98.56;99532.63;5019135;28;20033;-75
2022/01/10 03:14:17;;;;;;;26.38;17.13;;;;;;;5.26;98.15;99552.84;5019957;28;20053;-74
2022/01/10 03:16:43;;;;;;;21.35;15.52;;;;;;;5.01;97.75;99543.97;5016829;28;20048;-73
2022/01/10 03:19:08;;;;;;;20.92;15.25;;;;;;;4.92;97.93;99546.53;5014974;28;20041;-74
2022/01/10 03:21:35;;;;;;;24.50;16.63;;;;;;;5.18;97.92;99564.94;5018091;28;20493;-79
2022/01/10 03:24:02;;;;;;;18.92;14.02;;;;;;;5.18;97.90;99558.00;5018006;28;20041;-73
2022/01/10 03:26:27;;;;;;;22.17;15.82;;;;;;;4.76;97.99;99542.91;5010636;28;21064;-77
2022/01/10 03:28:54;;;;;;;22.80;14.60;;;;;;;4.85;98.59;99569.84;4993925;28;23355;-73
2022/01/10 03:31:20;;;;;;;21.95;14.43;;;;;;;4.85;98.71;99567.25;5003632;28;20037;-73
2022/01/10 03:33:45;;;;;;;21.42;15.70;;;;;;;4.72;98.75;99542.00;5013708;28;20495;-73
2022/01/10 03:36:11;;;;;;;17.83;13.43;;;;;;;4.63;98.84;99558.34;5013661;28;20037;-73
2022/01/10 03:38:36;;;;;;;15.18;12.68;;;;;;;4.51;99.16;99559.97;4995684;28;20036;-73
2022/01/10 03:41:02;;;;;;;17.40;13.57;;;;;;;4.63;99.25;99578.28;4995271;28;20037;-73
2022/01/10 03:43:27;;;;;;;17.45;13.40;;;;;;;4.90;98.88;99569.91;5005979;28;20053;-73
2022/01/10 03:45:53;;;;;;;14.77;11.63;;;;;;;4.58;98.62;99582.56;5014367;28;20041;-73
2022/01/10 03:48:19;;;;;;;17.17;13.38;;;;;;;4.79;98.72;99581.91;4992724;28;20048;-72
2022/01/10 03:50:44;;;;;;;15.05;11.27;;;;;;;4.83;98.68;99596.69;4993991;28;20026;-74
2022/01/10 03:53:10;;;;;;;18.77;13.68;;;;;;;5.04;98.29;99599.47;4994441;28;20087;-73
2022/01/10 03:55:35;;;;;;;18.35;12.65;;;;;;;4.96;97.30;99574.25;5014661;28;20515;-73
2022/01/10 03:58:01;;;;;;;16.35;12.55;;;;;;;4.69;97.70;99598.28;5033587;28;20389;-72
2022/01/10 04:00:26;;;;;;;14.40;11.35;;;;;;;4.43;98.10;99578.94;5033328;28;20413;-72
2022/01/10 04:03:03;;;;;;;16.33;11.30;;;;;;;4.38;98.33;99593.59;5034483;28;20472;-72
2022/01/10 04:05:29;;;;;;;14.45;11.07;;;;;;;4.48;98.38;99578.13;5012961;28;20570;-76
2022/01/10 04:07:54;;;;;;;14.23;10.80;;;;;;;4.72;97.94;99598.31;5033636;28;20044;-73
2022/01/10 04:10:20;;;;;;;14.80;10.75;;;;;;;4.73;97.75;99618.22;5032822;28;20048;-72
2022/01/10 04:12:45;;;;;;;15.55;10.88;;;;;;;4.51;97.30;99617.13;5033259;28;20132;-75
2022/01/10 04:15:11;;;;;;;13.43;10.68;;;;;;;4.49;97.59;99624.03;4999141;28;20068;-73
2022/01/10 04:17:37;;;;;;;16.95;10.48;;;;;;;4.30;97.83;99615.13;5034712;28;20144;-79
2022/01/10 04:20:04;;;;;;;16.27;8.85;;;;;;;4.15;98.27;99608.91;5036307;28;20064;-76
2022/01/10 04:22:29;;;;;;;14.25;10.50;;;;;;;4.14;98.50;99611.47;5038205;28;20365;-73
2022/01/10 04:28:53;;;;;;;14.23;8.77;;;;;;;4.20;97.90;99615.03;5021680;27;20632;-74
2022/01/10 04:31:18;;;;;;;11.30;8.38;;;;;;;4.59;97.64;99641.47;5010974;28;20042;-73
2022/01/10 04:33:44;;;;;;;10.85;8.48;;;;;;;4.41;97.89;99660.31;5010937;28;20091;-73
2022/01/10 04:36:09;;;;;;;9.93;5.68;;;;;;;4.42;97.83;99649.94;5010157;28;20038;-73
2022/01/10 04:38:35;;;;;;;14.05;8.05;;;;;;;4.17;97.58;99651.34;5011894;28;20538;-73
2022/01/10 04:41:03;;;;;;;9.48;7.38;;;;;;;4.19;97.77;99662.63;5011663;28;20046;-74
2022/01/10 04:43:28;;;;;;;12.43;8.98;;;;;;;4.31;97.80;99643.72;5009473;28;20065;-75
2022/01/10 04:45:54;;;;;;;11.63;8.75;;;;;;;4.12;97.96;99653.00;5009927;28;20103;-73
2022/01/10 04:48:21;;;;;;;12.73;8.32;;;;;;;4.06;98.14;99645.13;5010977;28;20034;-73
2022/01/10 04:53:32;;;;;;;10.65;8.00;;;;;;;4.59;97.40;99673.53;5011330;28;20056;-75
2022/01/10 04:55:58;;;;;;;10.75;8.35;;;;;;;4.55;97.33;99679.53;5010414;28;20058;-75
2022/01/10 04:58:23;;;;;;;12.00;8.38;;;;;;;4.23;97.59;99663.53;5012202;28;20048;-74
2022/01/10 05:00:53;;;;;;;10.32;8.55;;;;;;;4.30;97.21;99685.25;5008592;28;20463;-73
2022/01/10 05:03:19;;;;;;;10.98;7.18;;;;;;;4.33;97.40;99682.69;5011446;28;20041;-72
2022/01/10 05:05:45;;;;;;;12.43;8.55;;;;;;;4.37;97.47;99695.72;5010794;28;20089;-75
2022/01/10 05:08:10;;;;;;;10.38;7.43;;;;;;;4.14;97.16;99678.97;5010131;28;20045;-74
2022/01/10 05:10:36;;;;;;;13.88;8.80;;;;;;;4.18;96.99;99709.31;5011151;28;20050;-73
2022/01/10 05:13:01;;;;;;;10.77;7.43;;;;;;;4.26;97.28;99697.34;5010181;28;20038;-75
2022/01/10 05:15:27;;;;;;;14.35;8.05;;;;;;;4.38;97.10;99687.09;5009460;28;20045;-74
2022/01/10 05:17:53;;;;;;;9.07;6.63;;;;;;;4.17;96.66;99687.69;5010968;28;20044;-80
2022/01/10 05:20:18;;;;;;;10.50;7.47;;;;;;;4.04;96.53;99679.69;5008230;28;20095;-76
2022/01/10 05:22:44;;;;;;;12.13;7.22;;;;;;;4.14;96.69;99707.53;5008133;28;20057;-75
2022/01/10 05:25:09;;;;;;;9.18;6.50;;;;;;;4.47;96.48;99706.25;5007156;28;20144;-72
2022/01/10 05:27:35;;;;;;;9.55;6.88;;;;;;;4.04;96.32;99688.34;5010546;28;20054;-74
2022/01/10 05:30:01;;;;;;;9.50;7.95;;;;;;;4.30;96.07;99688.72;5009219;28;20040;-73
2022/01/10 05:32:26;;;;;;;10.07;6.55;;;;;;;4.29;95.67;99712.94;5010741;28;20088;-73
2022/01/10 05:34:51;;;;;;;9.80;6.82;;;;;;;4.04;95.61;99697.88;5007732;28;20542;-74
2022/01/10 05:37:17;;;;;;;10.23;6.05;;;;;;;4.28;95.99;99715.50;5006300;28;20046;-74
2022/01/10 05:39:42;;;;;;;9.32;6.32;;;;;;;4.19;96.17;99711.06;4999466;28;20044;-75
2022/01/10 05:42:08;;;;;;;11.57;5.45;;;;;;;4.06;96.14;99724.72;4995769;28;20099;-74
2022/01/10 05:44:34;;;;;;;10.02;5.13;;;;;;;4.08;96.35;99728.22;4995630;28;20022;-76
2022/01/10 05:47:01;;;;;;;7.70;5.40;;;;;;;4.16;96.07;99698.03;4995603;28;20053;-76
2022/01/10 05:49:32;;;;;;;9.15;5.88;;;;;;;4.19;95.85;99701.56;4996348;28;20048;-75
2022/01/10 05:51:58;;;;;;;6.03;4.38;;;;;;;4.11;95.88;99712.69;4995323;28;20058;-73
2022/01/10 05:54:24;;;;;;;8.13;4.88;;;;;;;4.06;96.28;99712.63;4994905;28;20025;-74
2022/01/10 05:56:49;;;;;;;7.45;4.97;;;;;;;3.97;96.63;99739.28;4996268;28;22278;-73
2022/01/10 05:59:14;;;;;;;6.68;4.38;;;;;;;3.89;96.74;99725.34;4994329;28;20096;-73
2022/01/10 06:01:42;;;;;;;6.50;5.15;;;;;;;4.02;96.78;99726.38;4994638;28;20046;-73
2022/01/10 06:04:10;;;;;;;6.40;4.07;;;;;;;3.88;96.97;99728.78;4996068;28;20050;-74
2022/01/10 06:06:35;;;;;;;7.70;4.47;;;;;;;3.94;96.84;99715.91;4993334;28;20049;-74
2022/01/10 06:09:01;;;;;;;7.70;5.40;;;;;;;4.04;96.66;99745.47;4995717;28;20541;-72
2022/01/10 06:11:26;;;;;;;8.73;6.45;;;;;;;4.13;96.56;99753.41;4996508;28;20038;-72
2022/01/10 06:13:52;;;;;;;7.80;5.97;;;;;;;3.79;96.75;99728.63;4995869;28;20111;-74
2022/01/10 06:16:17;;;;;;;12.23;6.53;;;;;;;3.69;96.73;99730.19;4995723;28;21187;-78
2022/01/10 06:18:43;;;;;;;7.60;4.63;;;;;;;3.81;97.27;99747.69;4995994;28;20042;-74
2022/01/10 06:21:08;;;;;;;10.63;6.07;;;;;;;3.76;96.97;99732.03;4995341;28;20053;-73
2022/01/10 06:23:34;;;;;;;10.02;4.55;;;;;;;3.80;96.93;99751.16;4996379;28;20366;-76
2022/01/10 06:26:53;;;;;;;7.47;4.45;;;;;;;3.84;96.88;99727.00;4955405;28;22060;-74
2022/01/10 06:29:19;;;;;;;6.57;5.70;;;;;;;3.73;96.66;99724.22;4918041;28;20523;-73
2022/01/10 06:31:44;;;;;;;8.38;5.75;;;;;;;3.63;96.78;99735.31;4913096;28;20047;-77
2022/01/10 06:34:09;;;;;;;8.43;5.97;;;;;;;3.61;97.07;99720.56;4915862;29;20119;-75
2022/01/10 06:36:35;;;;;;;7.35;5.38;;;;;;;3.74;96.99;99740.66;4915990;29;20044;-75
2022/01/10 06:39:00;;;;;;;8.02;4.78;;;;;;;3.66;96.72;99737.06;4913715;29;20052;-73
2022/01/10 06:41:27;;;;;;;7.15;4.95;;;;;;;3.77;96.86;99751.09;4914036;29;20044;-75
2022/01/10 06:43:52;;;;;;;8.27;5.78;;;;;;;3.75;96.42;99735.50;4916229;28;20053;-78
2022/01/10 06:46:18;;;;;;;11.38;6.22;;;;;;;3.94;95.98;99743.59;4913694;28;20561;-73
2022/01/10 06:48:43;;;;;;;9.68;5.88;;;;;;;3.83;95.84;99765.88;4915487;29;20040;-75
2022/01/10 06:51:09;;;;;;;6.25;3.10;;;;;;;3.75;95.40;99750.19;4915318;28;20040;-74
2022/01/10 06:53:34;;;;;;;7.38;4.68;;;;;;;3.72;95.36;99747.53;4914730;29;20055;-74
2022/01/10 06:56:00;;;;;;;9.57;5.10;;;;;;;3.73;95.01;99752.75;4914848;28;20504;-73
2022/01/10 06:58:25;;;;;;;13.00;5.65;;;;;;;3.85;94.73;99784.94;4915879;28;20408;-72
2022/01/10 07:00:51;;;;;;;9.65;5.95;;;;;;;3.99;94.62;99775.66;4914477;28;20059;-73
2022/01/10 07:03:16;;;;;;;8.43;5.85;;;;;;;3.90;94.62;99780.72;4944056;28;20047;-74
2022/01/10 07:05:42;;;;;;;8.95;4.95;;;;;;;3.78;94.50;99778.78;4914784;29;20032;-71
2022/01/10 07:08:07;;;;;;;9.55;6.00;;;;;;;3.81;94.51;99784.00;4912636;29;20036;-72
2022/01/10 07:10:33;;;;;;;6.05;4.07;;;;;;;3.94;94.17;99798.94;4912231;29;20047;-73
2022/01/10 07:12:59;;;;;;;14.65;5.40;;;;;;;3.92;94.61;99794.59;4912958;29;20493;-76
2022/01/10 07:15:26;;;;;;;6.43;3.97;;;;;;;3.95;94.13;99786.84;4913490;29;20107;-73
2022/01/10 07:17:51;;;;;;;10.43;4.60;;;;;;;3.90;94.25;99804.06;4916385;29;20031;-73
2022/01/10 07:20:17;;;;;;;10.52;5.72;;;;;;;4.07;94.29;99810.41;4915267;29;20039;-73
2022/01/10 07:22:42;;;;;;;6.32;3.55;;;;;;;3.94;94.11;99808.47;4913222;29;20051;-73
2022/01/10 07:25:08;;;;;;;6.13;4.20;;;;;;;4.05;93.90;99812.13;4915292;28;20106;-74
2022/01/10 07:27:34;;;;;;;8.38;5.95;;;;;;;3.75;93.80;99792.56;4933270;28;20476;-72
2022/01/10 07:30:00;;;;;;;10.52;5.70;;;;;;;3.90;94.18;99817.91;4935635;28;20118;-76
2022/01/10 07:32:29;;;;;;;6.95;3.83;;;;;;;3.66;94.17;99802.78;4934147;28;22947;-72
2022/01/10 07:34:55;;;;;;;7.93;5.28;;;;;;;3.92;94.28;99815.34;4931896;28;20503;-72
2022/01/10 07:37:21;;;;;;;7.78;5.65;;;;;;;3.69;93.87;99792.47;4924348;28;20086;-74
2022/01/10 07:39:46;;;;;;;7.80;4.57;;;;;;;3.87;93.97;99804.88;4920743;28;20071;-72
2022/01/10 07:42:12;;;;;;;7.57;4.57;;;;;;;3.87;93.55;99807.47;4919862;28;20028;-72
2022/01/10 07:44:37;;;;;;;7.35;4.82;;;;;;;4.12;93.47;99800.09;4919791;29;20040;-69
2022/01/10 07:47:03;;;;;;;6.85;3.67;;;;;;;3.82;93.34;99819.50;4921135;29;20564;-71
2022/01/10 07:49:28;;;;;;;9.35;5.70;;;;;;;3.80;93.23;99754.59;4921647;28;20043;-72
2022/01/10 07:51:57;;;;;;;12.82;5.57;;;;;;;3.95;93.16;99805.88;4919330;28;20043;-69
2022/01/10 07:54:25;;;;;;;7.20;4.05;;;;;;;3.78;93.53;99808.19;4920225;29;20028;-76
2022/01/10 07:56:51;;;;;;;8.77;5.90;;;;;;;3.98;93.01;99818.94;4921046;29;20070;-72
2022/01/10 07:59:17;;;;;;;9.90;5.85;;;;;;;3.73;93.17;99801.19;4918129;29;20130;-72
2022/01/10 08:01:45;;;;;;;12.90;7.53;;;;;;;3.83;93.23;99797.03;4919610;29;20682;-76
2022/01/10 08:04:10;;;;;;;9.98;5.60;;;;;;;3.87;93.45;99802.28;4920001;29;20048;-70
2022/01/10 08:06:36;;;;;;;12.02;7.10;;;;;;;4.04;93.03;99812.94;4918483;29;20407;-72
2022/01/10 08:09:02;;;;;;;10.38;6.55;;;;;;;3.87;93.20;99829.97;4920337;29;20044;-74
2022/01/10 08:11:28;;;;;;;10.65;7.22;;;;;;;3.86;93.38;99836.00;4921094;29;20055;-74
2022/01/10 08:13:54;;;;;;;8.63;4.03;;;;;;;3.84;93.69;99848.97;4918393;28;20051;-80
2022/01/10 08:16:20;;;;;;;10.38;6.40;;;;;;;3.94;93.46;99840.47;4918697;29;20831;-78
2022/01/10 08:18:45;;;;;;;11.90;6.43;;;;;;;4.00;93.03;99835.41;4919277;29;20079;-74
2022/01/10 08:21:13;;;;;;;8.50;5.95;;;;;;;3.85;93.12;99824.75;4920116;29;20047;-71
2022/01/10 08:23:38;;;;;;;7.10;4.95;;;;;;;4.01;92.89;99846.66;4920431;29;20642;-75
2022/01/10 08:26:07;;;;;;;20.33;6.28;;;;;;;3.83;92.70;99842.00;4914249;29;20059;-76
2022/01/10 08:28:33;;;;;;;10.60;5.80;;;;;;;4.03;92.99;99850.16;4920150;29;20052;-78
2022/01/10 08:30:58;;;;;;;7.85;4.93;;;;;;;4.22;92.63;99849.59;4916832;28;20106;-73
2022/01/10 08:33:23;;;;;;;7.80;5.03;;;;;;;4.07;92.61;99869.25;4928413;29;20464;-78
2022/01/10 08:35:51;;;;;;;7.22;3.53;;;;;;;4.17;92.02;99861.66;4919839;29;20059;-73
2022/01/10 08:38:17;;;;;;;9.00;4.45;;;;;;;4.19;92.24;99846.06;4918457;29;20484;-72
2022/01/10 08:40:43;;;;;;;7.20;4.78;;;;;;;4.37;92.15;99861.97;4917904;29;20051;-74
2022/01/10 08:43:10;;;;;;;9.95;4.43;;;;;;;3.97;92.61;99852.63;4919238;29;20177;-74
2022/01/10 08:45:39;;;;;;;11.23;5.00;;;;;;;3.92;92.45;99839.56;4917204;29;20043;-73
2022/01/10 08:48:06;;;;;;;6.82;4.85;;;;;;;4.20;92.26;99863.41;4916217;29;20035;-71
2022/01/10 08:50:33;;;;;;;8.68;4.97;;;;;;;4.16;91.99;99853.81;4917309;29;20499;-71
2022/01/10 08:53:02;;;;;;;9.45;5.18;;;;;;;3.97;92.44;99842.25;4918490;29;20055;-75
2022/01/10 08:55:27;;;;;;;8.02;3.80;;;;;;;3.83;92.65;99856.72;4919095;28;20058;-71
2022/01/10 08:57:53;;;;;;;8.32;5.53;;;;;;;3.92;92.71;99836.97;4919400;29;20661;-75
2022/01/10 09:00:18;;;;;;;8.88;4.45;;;;;;;3.90;92.52;99838.66;4919827;29;20380;-77
2022/01/10 09:02:44;;;;;;;8.15;4.32;;;;;;;3.81;92.20;99831.59;4919154;29;20028;-73
2022/01/10 09:05:09;;;;;;;7.22;4.72;;;;;;;4.04;92.53;99828.53;4918560;29;20866;-76
2022/01/10 09:07:36;;;;;;;8.07;4.47;;;;;;;3.79;92.75;99843.69;4920553;29;20052;-74
2022/01/10 09:10:01;;;;;;;8.00;5.13;;;;;;;3.97;92.27;99844.84;4933244;28;20471;-74
2022/01/10 09:12:27;;;;;;;11.80;6.80;;;;;;;4.09;92.03;99855.44;4917291;29;20071;-76
2022/01/10 09:14:52;;;;;;;12.48;5.70;;;;;;;3.81;92.55;99854.06;4920498;29;20054;-72
2022/01/10 09:17:18;;;;;;;11.18;7.22;;;;;;;3.87;92.26;99850.72;4918907;29;20052;-76
2022/01/10 09:19:43;;;;;;;9.80;6.13;;;;;;;4.00;92.18;99801.66;4918423;29;20476;-75
2022/01/10 09:22:09;;;;;;;7.82;4.78;;;;;;;3.79;92.25;99847.97;4919021;29;20050;-73
2022/01/10 09:24:34;;;;;;;14.93;5.90;;;;;;;3.63;92.41;99839.06;4918506;28;20109;-77
2022/01/10 09:27:01;;;;;;;7.60;4.07;;;;;;;3.69;92.51;99856.44;4913621;29;20063;-73
2022/01/10 09:29:26;;;;;;;8.60;5.65;;;;;;;4.00;92.00;99871.75;4918321;28;20098;-72
2022/01/10 09:31:52;;;;;;;10.13;4.75;;;;;;;4.13;91.49;99844.25;4918570;28;20043;-71
2022/01/10 09:34:17;;;;;;;10.13;5.57;;;;;;;3.98;91.83;99864.75;4916447;28;20043;-71
2022/01/10 09:36:43;;;;;;;8.52;5.35;;;;;;;4.04;90.96;99862.28;4918335;28;20247;-73
2022/01/10 09:39:09;;;;;;;11.02;6.30;;;;;;;4.07;90.20;99864.91;4919492;29;20034;-71
2022/01/10 09:41:35;;;;;;;6.97;5.45;;;;;;;3.91;90.99;99861.19;4917647;29;20122;-71
2022/01/10 09:44:03;;;;;;;9.82;7.35;;;;;;;3.97;91.29;99876.88;4916812;29;20039;-71
2022/01/10 09:46:30;;;;;;;15.07;7.47;;;;;;;4.18;90.60;99884.16;4917784;28;20582;-71
2022/01/10 09:48:59;;;;;;;11.82;6.75;;;;;;;4.14;90.93;99887.53;4918673;28;20135;-73
2022/01/10 09:51:27;;;;;;;12.00;8.82;;;;;;;4.15;90.92;99862.47;4917473;28;20075;-73
2022/01/10 09:53:54;;;;;;;11.35;5.55;;;;;;;4.00;90.14;99882.13;4919115;29;20031;-80
2022/01/10 09:58:58;;;;;;;9.93;6.88;;;;;;;3.81;91.31;99891.28;5077501;27;21020;-73
2022/01/10 10:01:25;;;;;;;9.15;6.90;;;;;;;4.18;90.68;99881.56;5079166;28;20124;-75
2022/01/10 10:03:50;;;;;;;11.45;6.97;;;;;;;4.06;90.71;99891.72;5093086;28;20462;-78
2022/01/10 10:06:18;;;;;;;17.10;7.55;;;;;;;3.54;91.62;99863.09;5088309;28;20028;-74
2022/01/10 10:08:44;;;;;;;9.50;7.40;;;;;;;3.84;91.41;99866.22;5069279;28;20032;-75
2022/01/10 10:11:10;;;;;;;10.98;7.30;;;;;;;3.69;92.10;99872.88;5068067;28;20441;-72
2022/01/10 10:13:42;;;;;;;14.68;6.93;;;;;;;3.80;92.46;99878.28;5083314;28;20039;-73
2022/01/10 10:16:13;;;;;;;14.07;8.50;;;;;;;3.90;92.13;99881.91;5090180;27;20495;-79
2022/01/10 10:18:39;;;;;;;9.07;5.32;;;;;;;3.77;92.35;99881.72;5091756;27;20035;-74
2022/01/10 10:21:11;;;;;;;11.05;7.30;;;;;;;3.93;92.03;99888.06;5094314;28;20028;-74
2022/01/10 10:23:40;;;;;;;9.75;7.50;;;;;;;3.97;91.83;99861.28;5091301;28;20084;-73
2022/01/10 10:26:05;;;;;;;12.80;8.55;;;;;;;4.01;91.20;99870.88;5078987;28;20523;-72
2022/01/10 10:28:36;;;;;;;11.60;6.93;;;;;;;3.63;91.80;99864.09;5089737;28;20046;-73
2022/01/10 10:31:02;;;;;;;12.68;8.23;;;;;;;3.63;91.93;99870.19;5088581;28;20036;-73
2022/01/10 10:33:27;;;;;;;12.02;7.78;;;;;;;3.63;92.41;99875.38;5091120;28;20039;-72
2022/01/10 10:36:07;;;;;;;14.45;7.70;;;;;;;3.92;91.73;99875.03;5084219;28;20057;-74
2022/01/10 10:38:34;;;;;;;12.85;8.95;;;;;;;4.06;90.76;99852.78;5092430;28;20052;-75
2022/01/10 10:41:02;;;;;;;12.00;6.32;;;;;;;3.97;90.45;99876.00;5090593;28;20163;-72
2022/01/10 10:43:39;;;;;;;11.32;7.20;;;;;;;4.00;90.15;99868.25;5089126;28;20071;-74
2022/01/10 10:46:11;;;;;;;14.88;8.65;;;;;;;3.77;89.94;99845.38;5086068;28;20052;-77
2022/01/10 10:48:39;;;;;;;15.60;7.10;;;;;;;3.67;90.12;99855.53;5090824;27;20092;-73
2022/01/10 10:51:05;;;;;;;14.02;8.27;;;;;;;3.91;89.05;99868.09;5090652;28;20447;-73
2022/01/10 10:53:31;;;;;;;8.10;6.13;;;;;;;3.82;89.27;99874.00;5088174;28;20109;-73
2022/01/10 10:56:06;;;;;;;11.60;7.68;;;;;;;3.83;89.85;99880.94;5089334;28;21099;-74
2022/01/10 10:58:32;;;;;;;15.25;8.07;;;;;;;3.77;89.68;99896.41;5071271;28;20143;-76
2022/01/10 11:01:00;;;;;;;11.55;7.18;;;;;;;3.92;89.05;99882.84;5076516;28;20120;-72
2022/01/10 11:03:26;;;;;;;14.13;8.95;;;;;;;3.96;88.07;99895.03;5091972;28;20044;-74
2022/01/10 11:06:02;;;;;;;21.80;8.05;;;;;;;3.72;88.72;99896.31;5089228;28;20051;-74
2022/01/10 11:08:58;;;;;;;12.57;7.15;;;;;;;3.88;88.57;99888.81;5110750;27;20645;-73
2022/01/10 11:11:23;;;;;;;11.70;7.50;;;;;;;3.92;88.50;99906.19;5074225;28;20066;-75
2022/01/10 11:13:51;;;;;;;13.55;9.15;;;;;;;3.62;88.96;99894.38;5078963;28;20123;-73
2022/01/10 11:16:17;;;;;;;14.18;8.82;;;;;;;3.87;88.73;99903.50;5075344;28;20091;-73
2022/01/10 11:18:43;;;;;;;11.50;7.70;;;;;;;3.55;89.08;99883.00;5073463;28;20154;-76
2022/01/10 11:21:09;;;;;;;13.68;9.43;;;;;;;3.69;89.47;99917.00;5074651;28;20145;-77
2022/01/10 11:23:45;;;;;;;15.35;10.60;;;;;;;4.13;88.62;99892.72;5074481;28;20047;-74
2022/01/10 11:26:12;;;;;;;13.20;8.80;;;;;;;4.14;88.23;99907.44;5069983;28;20041;-74
2022/01/10 11:28:52;;;;;;;12.77;10.23;;;;;;;3.79;88.88;99903.38;5076672;28;20064;-73
2022/01/10 11:31:23;;;;;;;14.80;9.30;;;;;;;3.59;89.30;99908.16;5076571;28;20057;-74
2022/01/10 11:33:50;;;;;;;15.55;7.85;;;;;;;3.64;88.99;99899.59;5074705;28;20056;-72
2022/01/10 11:36:19;;;;;;;14.02;9.00;;;;;;;3.25;89.89;99896.22;5077513;28;20054;-74
2022/01/10 11:41:04;;;;;;;12.15;6.80;;;;;;;3.48;89.41;99927.81;5046047;27;20613;-73
2022/01/10 11:43:51;;;;;;;18.17;9.55;;;;;;;3.45;89.95;99929.47;5031016;28;20044;-72
2022/01/10 11:46:33;;;;;;;13.85;9.73;;;;;;;3.62;89.33;99925.50;5029583;28;20037;-72
2022/01/10 11:48:59;;;;;;;13.73;8.10;;;;;;;3.55;88.84;99915.84;5030805;28;20131;-72
2022/01/10 11:51:26;;;;;;;12.60;10.38;;;;;;;3.63;88.98;99926.38;5027954;28;20045;-73
2022/01/10 11:54:10;;;;;;;14.40;8.32;;;;;;;3.74;88.50;99923.13;5029901;28;20029;-73
2022/01/10 11:56:39;;;;;;;14.65;8.07;;;;;;;3.46;88.87;99913.06;5029026;28;20104;-72